createdAt,value
2023-02-25T00:01:12.741Z,7.40
2023-02-25T00:03:41.805Z,7.30
2023-02-25T00:06:13.404Z,7.30
2023-02-25T00:08:44.038Z,7.30
2023-02-25T00:11:13.424Z,7.20
2023-02-25T00:13:42.385Z,7.20
2023-02-25T00:16:11.018Z,7.20
2023-02-25T00:18:40.809Z,7.20
2023-02-25T00:21:09.828Z,7.20
2023-02-25T00:23:37.803Z,7.30
2023-02-25T00:26:08.958Z,7.20
2023-02-25T00:28:36.725Z,7.20
2023-02-25T00:31:08.590Z,7.20
2023-02-25T00:33:37.360Z,7.20
2023-02-25T00:36:08.568Z,7.20
2023-02-25T00:38:37.125Z,7.20
2023-02-25T00:41:12.561Z,7.20
2023-02-25T00:43:42.766Z,7.10
2023-02-25T00:46:10.954Z,7.20
2023-02-25T00:48:39.505Z,7.10
2023-02-25T00:51:09.052Z,7.10
2023-02-25T00:53:37.669Z,7.10
2023-02-25T00:56:07.492Z,7.10
2023-02-25T00:58:38.098Z,7.10
2023-02-25T01:01:15.830Z,7.10
2023-02-25T01:03:43.726Z,7.00
2023-02-25T01:06:11.810Z,7.00
2023-02-25T01:08:40.029Z,7.00
2023-02-25T01:11:13.895Z,7.00
2023-02-25T01:13:43.394Z,7.00
2023-02-25T01:16:13.066Z,7.00
2023-02-25T01:18:41.363Z,7.00
2023-02-25T01:21:17.599Z,6.90
2023-02-25T01:23:46.627Z,6.90
2023-02-25T01:26:14.843Z,7.00
2023-02-25T01:28:44.009Z,6.90
2023-02-25T01:31:18.674Z,6.90
2023-02-25T01:33:54.197Z,6.90
2023-02-25T01:36:22.368Z,6.80
2023-02-25T01:38:50.471Z,6.80
2023-02-25T01:41:18.540Z,6.80
2023-02-25T01:44:10.735Z,6.80
2023-02-25T01:46:39.910Z,6.80
2023-02-25T01:49:11.370Z,6.80
2023-02-25T01:51:39.649Z,6.80
2023-02-25T01:54:10.347Z,6.90
2023-02-25T01:56:41.554Z,6.80
2023-02-25T01:59:10.853Z,6.90
2023-02-25T02:01:40.627Z,6.90
2023-02-25T02:04:10.928Z,6.90
2023-02-25T02:06:40.092Z,6.90
2023-02-25T02:09:12.121Z,6.80
2023-02-25T02:11:40.068Z,6.80
2023-02-25T02:14:11.758Z,6.80
2023-02-25T02:17:07.274Z,6.80
2023-02-25T02:19:51.318Z,6.80
2023-02-25T02:22:25.257Z,6.80
2023-02-25T02:25:31.211Z,6.80
2023-02-25T02:28:39.424Z,6.80
2023-02-25T02:31:25.906Z,6.80
2023-02-25T02:34:00.682Z,6.80
2023-02-25T02:36:37.664Z,6.70
2023-02-25T02:39:14.497Z,6.70
2023-02-25T02:41:48.674Z,6.70
2023-02-25T02:44:20.256Z,6.70
2023-02-25T02:46:52.992Z,6.60
2023-02-25T02:49:27.273Z,6.60
2023-02-25T02:52:00.612Z,6.60
2023-02-25T02:54:32.959Z,6.60
2023-02-25T02:57:04.011Z,6.60
2023-02-25T02:59:36.057Z,6.50
2023-02-25T03:02:11.092Z,6.50
2023-02-25T03:04:42.338Z,6.50
2023-02-25T03:07:12.839Z,6.50
2023-02-25T03:09:44.831Z,6.40
2023-02-25T03:12:12.971Z,6.40
2023-02-25T03:14:40.865Z,6.40
2023-02-25T03:17:12.595Z,6.40
2023-02-25T03:19:42.764Z,6.40
2023-02-25T03:22:14.000Z,6.40
2023-02-25T03:24:45.467Z,6.40
2023-02-25T03:27:24.099Z,6.30
2023-02-25T03:29:52.698Z,6.30
2023-02-25T03:32:25.483Z,6.30
2023-02-25T03:34:57.542Z,6.30
2023-02-25T03:37:30.497Z,6.20
2023-02-25T03:40:01.998Z,6.20
2023-02-25T03:42:34.561Z,6.20
2023-02-25T03:45:05.978Z,6.20
2023-02-25T03:47:38.139Z,6.20
2023-02-25T03:50:11.236Z,6.20
2023-02-25T03:52:40.947Z,6.20
2023-02-25T03:55:11.258Z,6.20
2023-02-25T03:57:41.323Z,6.10
2023-02-25T04:00:17.375Z,6.20
2023-02-25T04:02:48.265Z,6.20
2023-02-25T04:05:18.035Z,6.10
2023-02-25T04:07:46.582Z,6.10
2023-02-25T04:10:16.633Z,6.10
2023-02-25T04:12:44.499Z,6.10
2023-02-25T04:15:14.080Z,6.10
2023-02-25T04:17:42.096Z,6.10
2023-02-25T04:20:13.256Z,6.10
2023-02-25T04:22:41.036Z,6.10
2023-02-25T04:25:09.733Z,6.10
2023-02-25T04:27:37.667Z,6.00
2023-02-25T04:30:06.516Z,6.00
2023-02-25T04:32:34.452Z,6.10
2023-02-25T04:35:03.199Z,6.00
2023-02-25T04:37:32.531Z,6.10
2023-02-25T04:40:00.495Z,6.00
2023-02-25T04:42:28.288Z,6.00
2023-02-25T04:44:56.096Z,6.00
2023-02-25T04:47:23.944Z,6.00
2023-02-25T04:49:51.757Z,5.90
2023-02-25T04:52:19.818Z,5.90
2023-02-25T04:54:49.090Z,5.90
2023-02-25T04:57:17.528Z,5.90
2023-02-25T04:59:45.476Z,5.90
2023-02-25T05:02:13.410Z,5.80
2023-02-25T05:04:42.043Z,5.80
2023-02-25T05:07:10.400Z,5.90
2023-02-25T05:09:38.224Z,5.90
2023-02-25T05:12:07.779Z,5.90
2023-02-25T05:14:35.837Z,5.90
2023-02-25T05:17:04.638Z,5.90
2023-02-25T05:19:32.607Z,5.90
2023-02-25T05:22:00.553Z,5.90
2023-02-25T05:24:28.327Z,5.90
2023-02-25T05:26:56.086Z,5.90
2023-02-25T05:29:25.355Z,5.90
2023-02-25T05:31:55.246Z,5.80
2023-02-25T05:34:23.371Z,5.80
2023-02-25T05:36:52.902Z,5.80
2023-02-25T05:39:20.738Z,5.80
2023-02-25T05:41:48.932Z,5.80
2023-02-25T05:44:16.688Z,5.80
2023-02-25T05:46:45.948Z,5.80
2023-02-25T05:49:13.815Z,5.80
2023-02-25T05:51:41.704Z,5.70
2023-02-25T05:54:09.593Z,5.70
2023-02-25T05:56:37.410Z,5.70
2023-02-25T05:59:05.277Z,5.70
2023-02-25T06:01:33.088Z,5.70
2023-02-25T06:04:02.302Z,5.70
2023-02-25T06:06:31.998Z,5.70
2023-02-25T06:09:00.038Z,5.70
2023-02-25T06:11:30.327Z,5.70
2023-02-25T06:14:00.176Z,5.70
2023-02-25T06:16:32.077Z,5.70
2023-02-25T06:19:02.100Z,5.70
2023-02-25T06:21:30.338Z,5.70
2023-02-25T06:23:58.325Z,5.70
2023-02-25T06:26:26.392Z,5.70
2023-02-25T06:28:54.439Z,5.70
2023-02-25T06:31:25.577Z,5.70
2023-02-25T06:33:54.927Z,5.70
2023-02-25T06:36:24.667Z,5.70
2023-02-25T06:38:52.730Z,5.70
2023-02-25T06:41:22.182Z,5.70
2023-02-25T06:43:52.227Z,5.70
2023-02-25T06:46:23.098Z,5.70
2023-02-25T06:48:51.209Z,5.70
2023-02-25T06:51:19.042Z,5.70
2023-02-25T06:53:48.654Z,5.60
2023-02-25T06:56:20.098Z,5.60
2023-02-25T06:58:48.379Z,5.60
2023-02-25T07:01:17.630Z,5.60
2023-02-25T07:03:45.614Z,5.60
2023-02-25T07:06:15.798Z,5.60
2023-02-25T07:08:43.880Z,5.60
2023-02-25T07:11:29.254Z,5.60
2023-02-25T07:13:57.589Z,5.60
2023-02-25T07:16:26.296Z,5.60
2023-02-25T07:18:54.635Z,5.60
2023-02-25T07:21:23.024Z,5.60
2023-02-25T07:23:51.409Z,5.60
2023-02-25T07:26:20.769Z,5.60
2023-02-25T07:28:49.012Z,5.60
2023-02-25T07:31:18.605Z,5.60
2023-02-25T07:34:00.868Z,5.60
2023-02-25T07:36:30.700Z,5.60
2023-02-25T07:38:58.824Z,5.60
2023-02-25T07:41:28.664Z,5.60
2023-02-25T07:43:56.791Z,5.60
2023-02-25T07:46:26.091Z,5.60
2023-02-25T07:48:53.919Z,5.60
2023-02-25T07:51:24.787Z,5.60
2023-02-25T07:53:54.576Z,5.60
2023-02-25T07:56:24.378Z,5.60
2023-02-25T07:58:53.575Z,5.60
2023-02-25T08:01:24.611Z,5.60
2023-02-25T08:03:54.187Z,5.60
2023-02-25T08:06:22.345Z,5.60
2023-02-25T08:08:51.993Z,5.60
2023-02-25T08:11:21.120Z,5.60
2023-02-25T08:13:49.025Z,5.60
2023-02-25T08:16:20.259Z,5.60
2023-02-25T08:18:49.067Z,5.60
2023-02-25T08:21:21.745Z,5.60
2023-02-25T08:23:49.894Z,5.60
2023-02-25T08:26:18.439Z,5.70
2023-02-25T08:28:47.559Z,5.70
2023-02-25T08:31:15.958Z,5.70
2023-02-25T08:33:49.371Z,5.70
2023-02-25T08:36:20.537Z,5.70
2023-02-25T08:38:48.323Z,5.70
2023-02-25T08:41:16.278Z,5.70
2023-02-25T08:43:44.332Z,5.70
2023-02-25T08:46:12.247Z,5.70
2023-02-25T08:48:40.066Z,5.70
2023-02-25T08:51:11.367Z,5.70
2023-02-25T08:53:41.289Z,5.70
2023-02-25T08:56:10.493Z,5.80
2023-02-25T08:58:39.432Z,5.80
2023-02-25T09:01:12.874Z,5.80
2023-02-25T09:03:53.474Z,5.80
2023-02-25T09:06:25.073Z,5.80
2023-02-25T09:08:54.441Z,5.80
2023-02-25T09:11:23.707Z,5.80
2023-02-25T09:13:52.575Z,5.90
2023-02-25T09:16:20.680Z,5.90
2023-02-25T09:18:50.206Z,5.90
2023-02-25T09:21:18.434Z,5.90
2023-02-25T09:23:51.236Z,5.90
2023-02-25T09:26:19.851Z,5.90
2023-02-25T09:28:49.361Z,6.00
2023-02-25T09:31:18.291Z,6.00
2023-02-25T09:33:46.683Z,6.00
2023-02-25T09:36:16.645Z,6.00
2023-02-25T09:38:46.267Z,6.00
2023-02-25T09:41:26.938Z,6.00
2023-02-25T09:44:03.362Z,6.00
2023-02-25T09:46:33.133Z,6.00
2023-02-25T09:49:06.914Z,6.10
2023-02-25T09:51:39.162Z,6.10
2023-02-25T09:54:17.536Z,6.10
2023-02-25T09:56:55.663Z,6.10
2023-02-25T09:59:24.568Z,6.10
2023-02-25T10:01:57.747Z,6.10
2023-02-25T10:04:33.397Z,6.10
2023-02-25T10:07:09.508Z,6.10
2023-02-25T10:09:45.562Z,6.10
2023-02-25T10:12:24.036Z,6.10
2023-02-25T10:15:05.939Z,6.10
2023-02-25T10:17:44.372Z,6.20
2023-02-25T10:20:40.031Z,6.20
2023-02-25T10:23:17.919Z,6.20
2023-02-25T10:25:55.529Z,6.20
2023-02-25T10:28:25.482Z,6.20
2023-02-25T10:30:58.296Z,6.20
2023-02-25T10:33:28.711Z,6.20
2023-02-25T10:36:01.927Z,6.20
2023-02-25T10:38:29.749Z,6.20
2023-02-25T10:40:59.899Z,6.20
2023-02-25T10:43:29.325Z,6.20
2023-02-25T10:46:02.339Z,6.20
2023-02-25T10:48:31.973Z,6.10
2023-02-25T10:51:07.118Z,6.10
2023-02-25T10:53:35.524Z,6.10
2023-02-25T10:56:03.914Z,6.00
2023-02-25T10:59:01.884Z,6.00
2023-02-25T11:01:38.969Z,6.00
2023-02-25T11:04:11.918Z,6.00
2023-02-25T11:06:41.935Z,6.00
2023-02-25T11:09:36.963Z,6.00
2023-02-25T11:12:18.796Z,6.00
2023-02-25T11:14:48.396Z,6.00
2023-02-25T11:17:20.200Z,6.00
2023-02-25T11:19:50.645Z,6.00
2023-02-25T11:22:21.048Z,6.00
2023-02-25T11:24:59.387Z,6.00
2023-02-25T11:27:39.228Z,6.00
2023-02-25T11:30:20.240Z,6.10
2023-02-25T11:32:53.654Z,6.10
2023-02-25T11:35:28.684Z,6.10
2023-02-25T11:37:58.131Z,6.10
2023-02-25T11:40:28.985Z,6.10
2023-02-25T11:43:17.024Z,6.10
2023-02-25T11:46:01.161Z,6.10
2023-02-25T11:48:31.504Z,6.10
2023-02-25T11:51:06.329Z,6.10
2023-02-25T11:53:54.300Z,6.10
2023-02-25T11:56:27.112Z,6.10
2023-02-25T11:59:07.028Z,6.10
2023-02-25T12:01:52.677Z,6.10
2023-02-25T12:04:50.479Z,6.20
2023-02-25T12:08:11.859Z,6.20
2023-02-25T12:11:17.587Z,6.20
2023-02-25T12:14:25.910Z,6.20
2023-02-25T12:17:32.588Z,6.20
2023-02-25T12:20:28.387Z,6.20
2023-02-25T12:23:35.064Z,6.20
2023-02-25T12:26:10.021Z,6.20
2023-02-25T12:28:58.415Z,6.30
2023-02-25T12:31:46.695Z,6.30
2023-02-25T12:34:45.980Z,6.30
2023-02-25T12:37:27.609Z,6.30
2023-02-25T12:40:08.898Z,6.30
2023-02-25T12:42:51.351Z,6.30
2023-02-25T12:45:44.058Z,6.40
2023-02-25T12:48:35.251Z,6.40
2023-02-25T12:51:29.655Z,6.40
2023-02-25T12:54:05.485Z,6.40
2023-02-25T12:57:03.270Z,6.50
2023-02-25T12:59:52.501Z,6.50
2023-02-25T13:02:40.185Z,6.60
2023-02-25T13:05:26.963Z,6.60
2023-02-25T13:08:30.233Z,6.60
2023-02-25T13:11:10.489Z,6.70
2023-02-25T13:13:59.946Z,6.70
2023-02-25T13:16:50.217Z,6.70
2023-02-25T13:19:54.607Z,6.80
2023-02-25T13:22:40.540Z,6.80
2023-02-25T13:25:15.380Z,6.90
2023-02-25T13:28:07.334Z,6.90
2023-02-25T13:30:46.701Z,6.90
2023-02-25T13:33:33.080Z,6.90
2023-02-25T13:36:18.076Z,6.90
2023-02-25T13:39:17.084Z,7.00
2023-02-25T13:42:00.792Z,6.90
2023-02-25T13:45:02.529Z,7.00
2023-02-25T13:47:47.544Z,7.00
2023-02-25T13:50:29.657Z,7.00
2023-02-25T13:53:12.594Z,7.00
2023-02-25T13:56:08.765Z,7.10
2023-02-25T13:58:58.095Z,7.00
2023-02-25T14:01:57.311Z,7.00
2023-02-25T14:05:08.019Z,7.00
2023-02-25T14:08:08.978Z,7.00
2023-02-25T14:10:45.857Z,7.00
2023-02-25T14:13:39.367Z,7.00
2023-02-25T14:16:22.128Z,7.00
2023-02-25T14:19:08.505Z,7.10
2023-02-25T14:21:59.729Z,7.10
2023-02-25T14:24:35.967Z,7.10
2023-02-25T14:27:16.614Z,7.20
2023-02-25T14:30:00.315Z,7.20
2023-02-25T14:32:43.974Z,7.20
2023-02-25T14:35:37.732Z,7.30
2023-02-25T14:38:10.742Z,7.30
2023-02-25T14:40:44.612Z,7.10
2023-02-25T14:43:32.266Z,7.00
2023-02-25T14:46:09.373Z,7.00
2023-02-25T14:48:45.530Z,6.90
2023-02-25T14:51:35.240Z,6.90
2023-02-25T14:54:44.168Z,6.80
2023-02-25T14:57:31.906Z,6.80
2023-02-25T15:00:25.370Z,6.80
2023-02-25T15:03:26.553Z,6.80
2023-02-25T15:06:10.665Z,6.70
2023-02-25T15:09:04.858Z,6.70
2023-02-25T15:11:54.145Z,6.70
2023-02-25T15:14:56.583Z,6.70
2023-02-25T15:18:00.849Z,6.70
2023-02-25T15:20:34.772Z,6.70
2023-02-25T15:23:08.626Z,6.70
2023-02-25T15:25:41.693Z,6.60
2023-02-25T15:28:38.880Z,6.60
2023-02-25T15:31:28.655Z,6.60
2023-02-25T15:34:43.669Z,6.60
2023-02-25T15:37:30.615Z,6.60
2023-02-25T15:40:00.134Z,6.50
2023-02-25T15:42:57.134Z,6.60
2023-02-25T15:45:46.789Z,6.60
2023-02-25T15:48:35.382Z,6.60
2023-02-25T15:51:06.286Z,6.60
2023-02-25T15:53:44.831Z,6.60
2023-02-25T15:56:45.816Z,6.50
2023-02-25T15:59:45.050Z,6.60
2023-02-25T16:02:49.763Z,6.60
2023-02-25T16:05:21.399Z,6.50
2023-02-25T16:07:51.759Z,6.50
2023-02-25T16:10:27.663Z,6.40
2023-02-25T16:12:58.992Z,6.40
2023-02-25T16:15:33.515Z,6.40
2023-02-25T16:18:14.156Z,6.30
2023-02-25T16:20:46.708Z,6.30
2023-02-25T16:23:15.566Z,6.30
2023-02-25T16:25:52.936Z,6.30
2023-02-25T16:28:28.969Z,6.30
2023-02-25T16:31:07.379Z,6.30
2023-02-25T16:33:43.801Z,6.20
2023-02-25T16:36:18.363Z,6.20
2023-02-25T16:38:51.025Z,6.10
2023-02-25T16:41:22.354Z,6.00
2023-02-25T16:43:53.651Z,5.80
2023-02-25T16:46:28.882Z,5.70
2023-02-25T16:48:58.923Z,5.70
2023-02-25T16:51:31.993Z,5.60
2023-02-25T16:54:06.027Z,5.60
2023-02-25T16:56:34.711Z,5.60
2023-02-25T16:59:06.669Z,5.60
2023-02-25T17:01:38.913Z,5.60
2023-02-25T17:04:19.684Z,5.60
2023-02-25T17:07:07.376Z,5.60
2023-02-25T17:09:35.626Z,5.60
2023-02-25T17:12:05.145Z,5.60
2023-02-25T17:14:33.216Z,5.60
2023-02-25T17:17:02.500Z,5.60
2023-02-25T17:19:30.448Z,5.60
2023-02-25T17:22:00.707Z,5.60
2023-02-25T17:24:32.231Z,5.60
2023-02-25T17:27:01.189Z,5.60
2023-02-25T17:29:35.672Z,5.60
2023-02-25T17:32:14.227Z,5.60
2023-02-25T17:34:43.136Z,5.60
2023-02-25T17:37:13.693Z,5.60
2023-02-25T17:39:44.242Z,5.50
2023-02-25T17:42:36.461Z,5.50
2023-02-25T17:45:08.406Z,5.50
2023-02-25T17:47:38.198Z,5.50
2023-02-25T17:50:22.727Z,5.50
2023-02-25T17:52:51.594Z,5.50
2023-02-25T17:55:26.007Z,5.40
2023-02-25T17:57:58.362Z,5.40
2023-02-25T18:00:29.535Z,5.40
2023-02-25T18:03:16.651Z,5.40
2023-02-25T18:05:51.347Z,5.40
2023-02-25T18:08:21.000Z,5.30
2023-02-25T18:10:55.911Z,5.30
2023-02-25T18:13:31.204Z,5.30
2023-02-25T18:16:39.800Z,5.20
2023-02-25T18:19:21.907Z,5.20
2023-02-25T18:21:53.685Z,5.20
2023-02-25T18:24:27.865Z,5.20
2023-02-25T18:27:04.491Z,5.20
2023-02-25T18:29:33.094Z,5.10
2023-02-25T18:32:01.227Z,5.20
2023-02-25T18:34:30.671Z,5.20
2023-02-25T18:36:58.684Z,5.20
2023-02-25T18:39:27.065Z,5.20
2023-02-25T18:41:54.941Z,5.20
2023-02-25T18:44:22.790Z,5.20
2023-02-25T18:46:50.599Z,5.20
2023-02-25T18:49:19.300Z,5.10
2023-02-25T18:51:51.072Z,5.10
2023-02-25T18:54:18.952Z,5.00
2023-02-25T18:56:47.097Z,5.00
2023-02-25T18:59:14.969Z,5.00
2023-02-25T19:01:44.385Z,5.00
2023-02-25T19:04:17.280Z,5.00
2023-02-25T19:06:46.670Z,5.00
2023-02-25T19:09:16.073Z,5.00
2023-02-25T19:11:43.886Z,5.00
2023-02-25T19:14:17.419Z,5.00
2023-02-25T19:16:45.490Z,5.00
2023-02-25T19:19:14.038Z,5.00
2023-02-25T19:21:42.160Z,5.00
2023-02-25T19:24:13.157Z,5.00
2023-02-25T19:26:42.380Z,5.00
2023-02-25T19:29:10.197Z,4.90
2023-02-25T19:31:38.524Z,4.90
2023-02-25T19:34:06.431Z,4.90
2023-02-25T19:36:34.307Z,4.80
2023-02-25T19:39:02.164Z,4.80
2023-02-25T19:41:30.546Z,4.80
2023-02-25T19:43:59.771Z,4.70
2023-02-25T19:46:28.509Z,4.70
2023-02-25T19:48:56.335Z,4.60
2023-02-25T19:51:24.143Z,4.60
2023-02-25T19:53:51.941Z,4.50
2023-02-25T19:56:19.713Z,4.40
2023-02-25T19:58:47.706Z,4.40
2023-02-25T20:01:17.265Z,4.30
2023-02-25T20:03:45.356Z,4.30
2023-02-25T20:06:13.640Z,4.30
2023-02-25T20:08:41.934Z,4.20
2023-02-25T20:11:10.601Z,4.20
2023-02-25T20:13:38.955Z,4.10
2023-02-25T20:16:09.075Z,4.10
2023-02-25T20:18:38.320Z,4.10
2023-02-25T20:21:06.745Z,4.00
2023-02-25T20:23:34.552Z,4.00
2023-02-25T20:26:07.149Z,4.00
2023-02-25T20:28:34.983Z,4.00
2023-02-25T20:31:06.686Z,4.00
2023-02-25T20:33:35.177Z,3.90
2023-02-25T20:36:18.811Z,4.00
2023-02-25T20:39:04.309Z,4.00
2023-02-25T20:41:32.435Z,4.00
2023-02-25T20:44:00.510Z,4.00
2023-02-25T20:46:29.571Z,4.00
2023-02-25T20:48:57.771Z,4.00
2023-02-25T20:51:27.473Z,4.00
2023-02-25T20:53:56.580Z,4.00
2023-02-25T20:56:26.343Z,4.00
2023-02-25T20:58:55.092Z,4.00
2023-02-25T21:01:23.318Z,3.90
2023-02-25T21:03:51.292Z,3.90
2023-02-25T21:06:19.723Z,3.80
2023-02-25T21:08:49.011Z,3.80
2023-02-25T21:11:16.768Z,3.70
2023-02-25T21:13:46.808Z,3.70
2023-02-25T21:16:16.348Z,3.70
2023-02-25T21:18:44.373Z,3.70
2023-02-25T21:21:13.561Z,3.70
2023-02-25T21:23:41.643Z,3.70
2023-02-25T21:26:12.013Z,3.60
2023-02-25T21:28:41.960Z,3.60
2023-02-25T21:31:12.651Z,3.50
2023-02-25T21:33:41.385Z,3.50
2023-02-25T21:36:10.418Z,3.50
2023-02-25T21:38:38.913Z,3.40
2023-02-25T21:41:08.452Z,3.40
2023-02-25T21:43:38.129Z,3.40
2023-02-25T21:46:10.750Z,3.40
2023-02-25T21:48:39.575Z,3.40
2023-02-25T21:51:07.932Z,3.40
2023-02-25T21:53:35.750Z,3.50
2023-02-25T21:56:10.500Z,3.50
2023-02-25T21:58:39.713Z,3.50
2023-02-25T22:01:15.535Z,3.50
2023-02-25T22:03:43.909Z,3.50
2023-02-25T22:06:12.926Z,3.50
2023-02-25T22:08:41.246Z,3.50
2023-02-25T22:11:12.540Z,3.40
2023-02-25T22:13:42.128Z,3.40
2023-02-25T22:16:10.497Z,3.40
2023-02-25T22:18:38.465Z,3.30
2023-02-25T22:21:09.623Z,3.30
2023-02-25T22:23:37.381Z,3.30
2023-02-25T22:26:06.761Z,3.20
2023-02-25T22:28:34.987Z,3.20
2023-02-25T22:31:05.189Z,3.10
2023-02-25T22:33:33.653Z,3.10
2023-02-25T22:36:03.196Z,3.00
2023-02-25T22:38:32.944Z,3.00
2023-02-25T22:41:01.544Z,2.90
2023-02-25T22:43:29.723Z,2.90
2023-02-25T22:46:08.001Z,2.80
2023-02-25T22:48:36.183Z,2.80
2023-02-25T22:51:04.458Z,2.80
2023-02-25T22:53:32.348Z,2.80
2023-02-25T22:56:03.656Z,2.80
2023-02-25T22:58:32.072Z,2.80
2023-02-25T23:01:00.490Z,2.80
2023-02-25T23:03:29.687Z,2.80
2023-02-25T23:05:57.565Z,2.90
2023-02-25T23:08:25.720Z,2.90
2023-02-25T23:10:53.763Z,2.90
2023-02-25T23:13:21.555Z,2.90
2023-02-25T23:15:49.654Z,2.90
2023-02-25T23:18:19.083Z,2.80
2023-02-25T23:20:48.721Z,2.80
2023-02-25T23:23:17.736Z,2.80
2023-02-25T23:25:52.071Z,2.80
2023-02-25T23:28:20.122Z,2.80
2023-02-25T23:30:48.222Z,2.80
2023-02-25T23:33:16.164Z,2.70
2023-02-25T23:35:43.941Z,2.80
2023-02-25T23:38:13.202Z,2.80
2023-02-25T23:40:41.098Z,2.80
2023-02-25T23:43:08.912Z,2.70
2023-02-25T23:45:36.781Z,2.70
2023-02-25T23:48:04.811Z,2.70
2023-02-25T23:50:32.633Z,2.60
2023-02-25T23:53:00.521Z,2.60
2023-02-25T23:55:29.817Z,2.50
2023-02-25T23:57:57.638Z,2.50
